SHT67 EGCC-EGPH
Flight info
| Callsign | SHT67 |
|---|---|
| Flight time | 0h 37m |
| Altitude | 24000 |
| Route | POL N601 INPIP |
| Aircraft | A320/M-SDE3FGHIRWY/LB1 |
Departure
| Time | 2026-04-20 21:23 |
|---|---|
| Airport | Manchester Airport (EGCC) |
Arrival
| Time | 2026-04-20 22:00 |
|---|---|
| Airport | Edinburgh Airport (EGPH) |
| Time | Latitude | Longitude | Altitude | Speed | Heading |
|---|---|---|---|---|---|
| 2026-04-20 20:48 | 53.36183 | -2.27755 | 243 ft | 0 kts | 45° |
| 2026-04-20 21:09 | 53.36168 | -2.27780 | 243 ft | 4 kts | 45° |
| 2026-04-20 21:09 | 53.36149 | -2.27812 | 243 ft | 4 kts | 45° |
| 2026-04-20 21:09 | 53.36131 | -2.27844 | 242 ft | 4 kts | 53° |
| 2026-04-20 21:10 | 53.36117 | -2.27882 | 242 ft | 4 kts | 76° |
| 2026-04-20 21:10 | 53.36116 | -2.27917 | 242 ft | 0 kts | 107° |
| 2026-04-20 21:15 | 53.36115 | -2.27911 | 242 ft | 2 kts | 107° |
| 2026-04-20 21:15 | 53.36110 | -2.27878 | 242 ft | 4 kts | 105° |
| 2026-04-20 21:15 | 53.36095 | -2.27827 | 242 ft | 3 kts | 155° |
| 2026-04-20 21:15 | 53.36058 | -2.27832 | 242 ft | 7 kts | 179° |
| 2026-04-20 21:16 | 53.35999 | -2.27830 | 241 ft | 10 kts | 180° |
| 2026-04-20 21:16 | 53.35968 | -2.27836 | 241 ft | 0 kts | 188° |
| 2026-04-20 21:17 | 53.35966 | -2.27837 | 241 ft | 2 kts | 188° |
| 2026-04-20 21:17 | 53.35935 | -2.27842 | 241 ft | 6 kts | 186° |
| 2026-04-20 21:17 | 53.35919 | -2.27845 | 241 ft | 7 kts | 186° |
| 2026-04-20 21:17 | 53.35857 | -2.27856 | 240 ft | 11 kts | 186° |
| 2026-04-20 21:18 | 53.35772 | -2.27870 | 239 ft | 14 kts | 185° |
| 2026-04-20 21:18 | 53.35687 | -2.27884 | 239 ft | 13 kts | 186° |
| 2026-04-20 21:18 | 53.35602 | -2.27947 | 238 ft | 16 kts | 229° |
| 2026-04-20 21:18 | 53.35528 | -2.28083 | 238 ft | 14 kts | 220° |
| 2026-04-20 21:19 | 53.35435 | -2.28157 | 234 ft | 14 kts | 191° |
| 2026-04-20 21:19 | 53.35327 | -2.28185 | 233 ft | 18 kts | 201° |
| 2026-04-20 21:19 | 53.35223 | -2.28317 | 231 ft | 15 kts | 230° |
| 2026-04-20 21:20 | 53.35098 | -2.28578 | 227 ft | 18 kts | 229° |
| 2026-04-20 21:20 | 53.35033 | -2.28711 | 226 ft | 16 kts | 230° |
| 2026-04-20 21:20 | 53.34943 | -2.28862 | 224 ft | 20 kts | 225° |
| 2026-04-20 21:20 | 53.34868 | -2.28997 | 222 ft | 14 kts | 227° |
| 2026-04-20 21:21 | 53.34795 | -2.29135 | 220 ft | 18 kts | 230° |
| 2026-04-20 21:21 | 53.34708 | -2.29300 | 222 ft | 16 kts | 214° |
| 2026-04-20 21:21 | 53.34676 | -2.29328 | 217 ft | 0 kts | 201° |
| 2026-04-20 21:21 | 53.34660 | -2.29337 | 217 ft | 5 kts | 197° |
| 2026-04-20 21:22 | 53.34616 | -2.29342 | 216 ft | 8 kts | 173° |
| 2026-04-20 21:22 | 53.34553 | -2.29299 | 219 ft | 11 kts | 138° |
| 2026-04-20 21:22 | 53.34551 | -2.29198 | 219 ft | 9 kts | 54° |
| 2026-04-20 21:22 | 53.34561 | -2.29175 | 217 ft | 10 kts | 54° |
| 2026-04-20 21:23 | 53.34755 | -2.28757 | 223 ft | 79 kts | 53° |
| 2026-04-20 21:23 | 53.35226 | -2.27800 | 236 ft | 129 kts | 50° |
| 2026-04-20 21:23 | 53.35864 | -2.26494 | 435 ft | 152 kts | 51° |
| 2026-04-20 21:23 | 53.36542 | -2.25153 | 1091 ft | 150 kts | 53° |
| 2026-04-20 21:24 | 53.37177 | -2.23793 | 1695 ft | 154 kts | 55° |
| 2026-04-20 21:24 | 53.37874 | -2.22271 | 1954 ft | 176 kts | 55° |
| 2026-04-20 21:24 | 53.38672 | -2.20520 | 2246 ft | 202 kts | 55° |
| 2026-04-20 21:24 | 53.39580 | -2.18534 | 2671 ft | 226 kts | 54° |
| 2026-04-20 21:25 | 53.40574 | -2.16374 | 3275 ft | 243 kts | 53° |
| 2026-04-20 21:25 | 53.41628 | -2.14093 | 4176 ft | 248 kts | 52° |
| 2026-04-20 21:25 | 53.42705 | -2.11771 | 4868 ft | 255 kts | 51° |
| 2026-04-20 21:25 | 53.44051 | -2.09912 | 5791 ft | 258 kts | 22° |
| 2026-04-20 21:26 | 53.45843 | -2.09557 | 6723 ft | 264 kts | 357° |
| 2026-04-20 21:26 | 53.47684 | -2.09803 | 7618 ft | 266 kts | 358° |
| 2026-04-20 21:26 | 53.49541 | -2.09927 | 8496 ft | 268 kts | 1° |
| 2026-04-20 21:26 | 53.51400 | -2.09921 | 9362 ft | 271 kts | 3° |
| 2026-04-20 21:27 | 53.53304 | -2.09815 | 10226 ft | 275 kts | 4° |
| 2026-04-20 21:27 | 53.55262 | -2.09687 | 10708 ft | 291 kts | 2° |
| 2026-04-20 21:27 | 53.57344 | -2.09685 | 10970 ft | 313 kts | 1° |
| 2026-04-20 21:27 | 53.59558 | -2.09765 | 11548 ft | 321 kts | 0° |
| 2026-04-20 21:28 | 53.61817 | -2.09874 | 12231 ft | 327 kts | 0° |
| 2026-04-20 21:28 | 53.64115 | -2.09981 | 12919 ft | 332 kts | 0° |
| 2026-04-20 21:28 | 53.66421 | -2.10077 | 13598 ft | 337 kts | 0° |
| 2026-04-20 21:28 | 53.68791 | -2.10162 | 14266 ft | 342 kts | 0° |
| 2026-04-20 21:29 | 53.71197 | -2.10240 | 14882 ft | 346 kts | 1° |
| 2026-04-20 21:29 | 53.73611 | -2.10465 | 15482 ft | 350 kts | 353° |
| 2026-04-20 21:29 | 53.75968 | -2.11426 | 16111 ft | 355 kts | 342° |
| 2026-04-20 21:29 | 53.78276 | -2.12983 | 16742 ft | 358 kts | 339° |
| 2026-04-20 21:30 | 53.80599 | -2.14574 | 17378 ft | 361 kts | 339° |
| 2026-04-20 21:30 | 53.82941 | -2.16169 | 18001 ft | 363 kts | 339° |
| 2026-04-20 21:30 | 53.85270 | -2.17755 | 18635 ft | 366 kts | 339° |
| 2026-04-20 21:30 | 53.87657 | -2.19382 | 19192 ft | 369 kts | 339° |
| 2026-04-20 21:31 | 53.90016 | -2.20996 | 19772 ft | 371 kts | 339° |
| 2026-04-20 21:31 | 53.92448 | -2.22661 | 20396 ft | 372 kts | 338° |
| 2026-04-20 21:31 | 53.94830 | -2.24293 | 20980 ft | 374 kts | 338° |
| 2026-04-20 21:31 | 53.97238 | -2.25948 | 21553 ft | 375 kts | 338° |
| 2026-04-20 21:32 | 53.99694 | -2.27638 | 22119 ft | 377 kts | 338° |
| 2026-04-20 21:32 | 54.02103 | -2.29296 | 22661 ft | 379 kts | 338° |
| 2026-04-20 21:32 | 54.04555 | -2.30987 | 23194 ft | 381 kts | 338° |
| 2026-04-20 21:32 | 54.07016 | -2.32686 | 23724 ft | 383 kts | 338° |
| 2026-04-20 21:33 | 54.09495 | -2.34400 | 24180 ft | 385 kts | 338° |
| 2026-04-20 21:33 | 54.11988 | -2.36131 | 24343 ft | 386 kts | 338° |
| 2026-04-20 21:33 | 54.14413 | -2.37818 | 24385 ft | 376 kts | 338° |
| 2026-04-20 21:33 | 54.16841 | -2.39508 | 24388 ft | 373 kts | 338° |
| 2026-04-20 21:34 | 54.19245 | -2.41182 | 24388 ft | 372 kts | 338° |
| 2026-04-20 21:34 | 54.21652 | -2.42861 | 24392 ft | 372 kts | 338° |
| 2026-04-20 21:34 | 54.24022 | -2.44511 | 24391 ft | 373 kts | 338° |
| 2026-04-20 21:34 | 54.26424 | -2.46183 | 24390 ft | 373 kts | 338° |
| 2026-04-20 21:35 | 54.28840 | -2.47864 | 24391 ft | 373 kts | 338° |
| 2026-04-20 21:35 | 54.31256 | -2.49548 | 24397 ft | 373 kts | 338° |
| 2026-04-20 21:35 | 54.33633 | -2.51211 | 24396 ft | 374 kts | 338° |
| 2026-04-20 21:35 | 54.36052 | -2.52906 | 24401 ft | 374 kts | 338° |
| 2026-04-20 21:36 | 54.38463 | -2.54600 | 24400 ft | 375 kts | 338° |
| 2026-04-20 21:36 | 54.40887 | -2.56307 | 24398 ft | 375 kts | 338° |
| 2026-04-20 21:36 | 54.43281 | -2.57994 | 24399 ft | 376 kts | 338° |
| 2026-04-20 21:36 | 54.45708 | -2.59700 | 24403 ft | 376 kts | 338° |
| 2026-04-20 21:37 | 54.48142 | -2.61414 | 24400 ft | 376 kts | 338° |
| 2026-04-20 21:37 | 54.50540 | -2.63107 | 24405 ft | 377 kts | 338° |
| 2026-04-20 21:37 | 54.52975 | -2.64829 | 24403 ft | 377 kts | 338° |
| 2026-04-20 21:37 | 54.55404 | -2.66548 | 24405 ft | 377 kts | 338° |
| 2026-04-20 21:38 | 54.57813 | -2.68252 | 24407 ft | 378 kts | 338° |
| 2026-04-20 21:38 | 54.60250 | -2.69977 | 24409 ft | 378 kts | 338° |
| 2026-04-20 21:38 | 54.62685 | -2.71707 | 24406 ft | 378 kts | 338° |
| 2026-04-20 21:38 | 54.65120 | -2.73447 | 24405 ft | 379 kts | 338° |
| 2026-04-20 21:39 | 54.67561 | -2.75196 | 24407 ft | 379 kts | 338° |
| 2026-04-20 21:39 | 54.69982 | -2.76930 | 24392 ft | 379 kts | 338° |
| 2026-04-20 21:39 | 54.72409 | -2.78670 | 24164 ft | 371 kts | 338° |
| 2026-04-20 21:39 | 54.74745 | -2.80343 | 23912 ft | 364 kts | 338° |
| 2026-04-20 21:40 | 54.77079 | -2.82014 | 23623 ft | 360 kts | 339° |
| 2026-04-20 21:40 | 54.79401 | -2.83676 | 23342 ft | 359 kts | 339° |
| 2026-04-20 21:40 | 54.81685 | -2.85314 | 23062 ft | 358 kts | 339° |
| 2026-04-20 21:40 | 54.83992 | -2.86972 | 22781 ft | 357 kts | 339° |
| 2026-04-20 21:41 | 54.86291 | -2.88627 | 22500 ft | 356 kts | 339° |
| 2026-04-20 21:41 | 54.88538 | -2.90246 | 22232 ft | 355 kts | 339° |
| 2026-04-20 21:41 | 54.90830 | -2.91900 | 21956 ft | 354 kts | 339° |
| 2026-04-20 21:41 | 54.93106 | -2.93544 | 21686 ft | 353 kts | 339° |
| 2026-04-20 21:42 | 54.95372 | -2.95181 | 21419 ft | 352 kts | 339° |
| 2026-04-20 21:42 | 54.97635 | -2.96820 | 21152 ft | 351 kts | 339° |
| 2026-04-20 21:42 | 54.99861 | -2.98432 | 20901 ft | 350 kts | 339° |
| 2026-04-20 21:42 | 55.02112 | -3.00064 | 20636 ft | 349 kts | 339° |
| 2026-04-20 21:43 | 55.04355 | -3.01696 | 20385 ft | 347 kts | 339° |
| 2026-04-20 21:43 | 55.06539 | -3.03290 | 20125 ft | 340 kts | 339° |
| 2026-04-20 21:43 | 55.08719 | -3.04882 | 19875 ft | 337 kts | 339° |
| 2026-04-20 21:43 | 55.10894 | -3.06472 | 19623 ft | 340 kts | 339° |
| 2026-04-20 21:44 | 55.13066 | -3.08064 | 19371 ft | 343 kts | 339° |
| 2026-04-20 21:44 | 55.15277 | -3.09685 | 19128 ft | 343 kts | 339° |
| 2026-04-20 21:44 | 55.17463 | -3.11288 | 18874 ft | 343 kts | 339° |
| 2026-04-20 21:44 | 55.19660 | -3.12901 | 18632 ft | 338 kts | 339° |
| 2026-04-20 21:45 | 55.21810 | -3.14480 | 18347 ft | 333 kts | 339° |
| 2026-04-20 21:45 | 55.23917 | -3.16029 | 18007 ft | 331 kts | 339° |
| 2026-04-20 21:45 | 55.26048 | -3.17595 | 17498 ft | 333 kts | 339° |
| 2026-04-20 21:45 | 55.28189 | -3.19126 | 17045 ft | 331 kts | 344° |
| 2026-04-20 21:46 | 55.30426 | -3.19978 | 16736 ft | 324 kts | 357° |
| 2026-04-20 21:46 | 55.32624 | -3.20012 | 16373 ft | 319 kts | 8° |
| 2026-04-20 21:46 | 55.34824 | -3.19666 | 15785 ft | 315 kts | 8° |
| 2026-04-20 21:46 | 55.37004 | -3.19334 | 15124 ft | 313 kts | 6° |
| 2026-04-20 21:47 | 55.39173 | -3.19823 | 14460 ft | 316 kts | 342° |
| 2026-04-20 21:47 | 55.41110 | -3.21584 | 13760 ft | 317 kts | 330° |
| 2026-04-20 21:47 | 55.42980 | -3.23626 | 13092 ft | 314 kts | 330° |
| 2026-04-20 21:47 | 55.44800 | -3.25645 | 12445 ft | 311 kts | 329° |
| 2026-04-20 21:48 | 55.46623 | -3.27670 | 11806 ft | 307 kts | 329° |
| 2026-04-20 21:48 | 55.48432 | -3.29678 | 11181 ft | 304 kts | 329° |
| 2026-04-20 21:48 | 55.50217 | -3.31656 | 10651 ft | 298 kts | 329° |
| 2026-04-20 21:48 | 55.51927 | -3.33553 | 10163 ft | 292 kts | 329° |
| 2026-04-20 21:49 | 55.53642 | -3.35454 | 9565 ft | 288 kts | 329° |
| 2026-04-20 21:49 | 55.55335 | -3.37332 | 8971 ft | 285 kts | 329° |
| 2026-04-20 21:49 | 55.56983 | -3.39162 | 8565 ft | 276 kts | 329° |
| 2026-04-20 21:49 | 55.58559 | -3.40920 | 8431 ft | 259 kts | 329° |
| 2026-04-20 21:50 | 55.60053 | -3.42595 | 8112 ft | 250 kts | 329° |
| 2026-04-20 21:50 | 55.61501 | -3.44220 | 7685 ft | 247 kts | 329° |
| 2026-04-20 21:50 | 55.62948 | -3.45848 | 7240 ft | 245 kts | 329° |
| 2026-04-20 21:50 | 55.63897 | -3.46918 | 6956 ft | 243 kts | 329° |
| 2026-04-20 21:51 | 55.65347 | -3.48554 | 6503 ft | 241 kts | 329° |
| 2026-04-20 21:51 | 55.66707 | -3.50098 | 6423 ft | 222 kts | 329° |
| 2026-04-20 21:51 | 55.67934 | -3.51507 | 6424 ft | 205 kts | 329° |
| 2026-04-20 21:51 | 55.69121 | -3.52881 | 6469 ft | 202 kts | 329° |
| 2026-04-20 21:52 | 55.70298 | -3.54242 | 6446 ft | 201 kts | 329° |
| 2026-04-20 21:52 | 55.71450 | -3.55575 | 6332 ft | 197 kts | 329° |
| 2026-04-20 21:52 | 55.72601 | -3.56912 | 5960 ft | 198 kts | 329° |
| 2026-04-20 21:52 | 55.73751 | -3.58255 | 5633 ft | 197 kts | 329° |
| 2026-04-20 21:53 | 55.74898 | -3.59598 | 5301 ft | 196 kts | 329° |
| 2026-04-20 21:53 | 55.76015 | -3.60915 | 4963 ft | 195 kts | 329° |
| 2026-04-20 21:53 | 55.77147 | -3.62263 | 4611 ft | 194 kts | 329° |
| 2026-04-20 21:53 | 55.78260 | -3.63594 | 4288 ft | 193 kts | 329° |
| 2026-04-20 21:54 | 55.79373 | -3.64930 | 3976 ft | 192 kts | 329° |
| 2026-04-20 21:54 | 55.80480 | -3.66267 | 3629 ft | 191 kts | 329° |
| 2026-04-20 21:54 | 55.81579 | -3.67602 | 3188 ft | 190 kts | 329° |
| 2026-04-20 21:54 | 55.82682 | -3.68801 | 2995 ft | 184 kts | 345° |
| 2026-04-20 21:55 | 55.83822 | -3.68805 | 2985 ft | 153 kts | 27° |
| 2026-04-20 21:55 | 55.84600 | -3.67704 | 2990 ft | 139 kts | 60° |
| 2026-04-20 21:55 | 55.85110 | -3.66213 | 3008 ft | 147 kts | 61° |
| 2026-04-20 21:55 | 55.85652 | -3.64637 | 3021 ft | 150 kts | 61° |
| 2026-04-20 21:56 | 55.86014 | -3.63582 | 3008 ft | 150 kts | 61° |
| 2026-04-20 21:56 | 55.86556 | -3.62002 | 3004 ft | 150 kts | 60° |
| 2026-04-20 21:56 | 55.87104 | -3.60406 | 2958 ft | 151 kts | 61° |
| 2026-04-20 21:56 | 55.87644 | -3.58827 | 2816 ft | 150 kts | 61° |
| 2026-04-20 21:57 | 55.88188 | -3.57238 | 2626 ft | 149 kts | 61° |
| 2026-04-20 21:57 | 55.88725 | -3.55668 | 2432 ft | 149 kts | 61° |
| 2026-04-20 21:57 | 55.89264 | -3.54091 | 2230 ft | 148 kts | 62° |
| 2026-04-20 21:57 | 55.89796 | -3.52534 | 2006 ft | 148 kts | 61° |
| 2026-04-20 21:58 | 55.90336 | -3.50952 | 1813 ft | 149 kts | 61° |
| 2026-04-20 21:58 | 55.90873 | -3.49378 | 1597 ft | 149 kts | 61° |
| 2026-04-20 21:58 | 55.91397 | -3.47843 | 1388 ft | 139 kts | 60° |
| 2026-04-20 21:58 | 55.91894 | -3.46396 | 1177 ft | 135 kts | 59° |
| 2026-04-20 21:59 | 55.92401 | -3.45019 | 965 ft | 133 kts | 58° |
| 2026-04-20 21:59 | 55.92898 | -3.43615 | 777 ft | 133 kts | 60° |
| 2026-04-20 21:59 | 55.93369 | -3.42195 | 596 ft | 132 kts | 61° |
| 2026-04-20 21:59 | 55.93821 | -3.40793 | 401 ft | 132 kts | 62° |
| 2026-04-20 22:00 | 55.94283 | -3.39372 | 236 ft | 132 kts | 58° |
| 2026-04-20 22:00 | 55.94752 | -3.37986 | 135 ft | 120 kts | 61° |
| 2026-04-20 22:00 | 55.95093 | -3.36965 | 114 ft | 73 kts | 58° |
| 2026-04-20 22:00 | 55.95268 | -3.36456 | 111 ft | 23 kts | 59° |
| 2026-04-20 22:01 | 55.95292 | -3.36384 | 111 ft | 7 kts | 58° |
| 2026-04-20 22:01 | 55.95347 | -3.36225 | 110 ft | 18 kts | 58° |
| 2026-04-20 22:01 | 55.95402 | -3.36065 | 111 ft | 15 kts | 58° |
| 2026-04-20 22:01 | 55.95461 | -3.35889 | 112 ft | 18 kts | 59° |
| 2026-04-20 22:02 | 55.95527 | -3.35690 | 113 ft | 15 kts | 64° |
| 2026-04-20 22:02 | 55.95550 | -3.35536 | 111 ft | 10 kts | 75° |
| 2026-04-20 22:02 | 55.95505 | -3.35445 | 115 ft | 10 kts | 148° |
| 2026-04-20 22:02 | 55.95464 | -3.35402 | 112 ft | 0 kts | 149° |
| 2026-04-20 22:03 | 55.95463 | -3.35401 | 112 ft | 1 kts | 149° |
| 2026-04-20 22:03 | 55.95450 | -3.35391 | 114 ft | 2 kts | 171° |
| 2026-04-20 22:03 | 55.95429 | -3.35413 | 112 ft | 5 kts | 221° |
| 2026-04-20 22:03 | 55.95407 | -3.35477 | 115 ft | 8 kts | 238° |
| 2026-04-20 22:04 | 55.95374 | -3.35571 | 114 ft | 10 kts | 238° |
| 2026-04-20 22:04 | 55.95332 | -3.35696 | 114 ft | 13 kts | 239° |
| 2026-04-20 22:04 | 55.95278 | -3.35856 | 112 ft | 16 kts | 238° |
| 2026-04-20 22:04 | 55.95223 | -3.36018 | 114 ft | 15 kts | 239° |
| 2026-04-20 22:05 | 55.95168 | -3.36179 | 114 ft | 13 kts | 238° |
| 2026-04-20 22:05 | 55.95118 | -3.36330 | 113 ft | 16 kts | 239° |
| 2026-04-20 22:05 | 55.95070 | -3.36400 | 116 ft | 7 kts | 171° |
| 2026-04-20 22:05 | 55.95015 | -3.36401 | 113 ft | 10 kts | 220° |
| 2026-04-20 22:06 | 55.94974 | -3.36515 | 114 ft | 12 kts | 239° |
| 2026-04-20 22:06 | 55.94932 | -3.36525 | 115 ft | 8 kts | 153° |
| 2026-04-20 22:06 | 55.94912 | -3.36501 | 113 ft | 0 kts | 147° |
| 2026-04-20 22:06 | 55.94901 | -3.36490 | 115 ft | 0 kts | 149° |